sensor_id;sensor_type;location;lat;lon;timestamp;P1;durP1;ratioP1;P2;durP2;ratioP2
11396;SDS011;5754;43.726;7.416;2023-03-11T00:02:14;10.50;;;4.33;;
11396;SDS011;5754;43.726;7.416;2023-03-11T00:04:49;10.50;;;3.93;;
11396;SDS011;5754;43.726;7.416;2023-03-11T00:07:23;12.03;;;4.13;;
11396;SDS011;5754;43.726;7.416;2023-03-11T00:09:58;9.27;;;3.80;;
11396;SDS011;5754;43.726;7.416;2023-03-11T00:12:33;9.43;;;3.03;;
11396;SDS011;5754;43.726;7.416;2023-03-11T00:15:08;6.80;;;3.10;;
11396;SDS011;5754;43.726;7.416;2023-03-11T00:17:43;10.77;;;3.80;;
11396;SDS011;5754;43.726;7.416;2023-03-11T00:20:22;9.43;;;3.00;;
11396;SDS011;5754;43.726;7.416;2023-03-11T00:22:57;5.63;;;2.87;;
11396;SDS011;5754;43.726;7.416;2023-03-11T00:25:33;6.20;;;2.70;;
11396;SDS011;5754;43.726;7.416;2023-03-11T00:28:08;18.07;;;4.47;;
11396;SDS011;5754;43.726;7.416;2023-03-11T00:30:46;17.83;;;5.03;;
11396;SDS011;5754;43.726;7.416;2023-03-11T00:33:20;14.80;;;5.00;;
11396;SDS011;5754;43.726;7.416;2023-03-11T00:35:55;17.30;;;5.03;;
11396;SDS011;5754;43.726;7.416;2023-03-11T00:38:29;16.53;;;4.97;;
11396;SDS011;5754;43.726;7.416;2023-03-11T00:41:04;18.93;;;5.73;;
11396;SDS011;5754;43.726;7.416;2023-03-11T00:43:38;13.30;;;4.77;;
11396;SDS011;5754;43.726;7.416;2023-03-11T00:46:13;15.10;;;4.90;;
11396;SDS011;5754;43.726;7.416;2023-03-11T00:48:48;13.53;;;4.27;;
11396;SDS011;5754;43.726;7.416;2023-03-11T00:51:24;7.97;;;3.33;;
11396;SDS011;5754;43.726;7.416;2023-03-11T00:53:58;8.27;;;2.40;;
11396;SDS011;5754;43.726;7.416;2023-03-11T00:56:34;11.00;;;3.20;;
11396;SDS011;5754;43.726;7.416;2023-03-11T00:59:11;10.93;;;3.20;;
11396;SDS011;5754;43.726;7.416;2023-03-11T01:01:45;9.50;;;3.13;;
11396;SDS011;5754;43.726;7.416;2023-03-11T01:04:21;8.27;;;2.60;;
11396;SDS011;5754;43.726;7.416;2023-03-11T01:06:55;6.63;;;2.90;;
11396;SDS011;5754;43.726;7.416;2023-03-11T01:09:30;5.27;;;1.57;;
11396;SDS011;5754;43.726;7.416;2023-03-11T01:12:04;3.47;;;1.40;;
11396;SDS011;5754;43.726;7.416;2023-03-11T01:14:40;3.63;;;1.10;;
11396;SDS011;5754;43.726;7.416;2023-03-11T01:17:15;0.93;;;0.60;;
11396;SDS011;5754;43.726;7.416;2023-03-11T01:19:49;0.60;;;0.60;;
11396;SDS011;5754;43.726;7.416;2023-03-11T01:22:24;0.40;;;0.40;;
11396;SDS011;5754;43.726;7.416;2023-03-11T01:24:59;1.20;;;0.50;;
11396;SDS011;5754;43.726;7.416;2023-03-11T01:27:33;2.10;;;0.50;;
11396;SDS011;5754;43.726;7.416;2023-03-11T01:30:09;0.53;;;0.40;;
11396;SDS011;5754;43.726;7.416;2023-03-11T01:32:46;1.30;;;0.50;;
11396;SDS011;5754;43.726;7.416;2023-03-11T01:35:23;0.40;;;0.40;;
11396;SDS011;5754;43.726;7.416;2023-03-11T01:38:00;0.30;;;0.30;;
11396;SDS011;5754;43.726;7.416;2023-03-11T01:40:40;2.40;;;0.40;;
11396;SDS011;5754;43.726;7.416;2023-03-11T01:49:02;0.20;;;0.20;;
11396;SDS011;5754;43.726;7.416;2023-03-11T01:51:40;1.90;;;0.33;;
11396;SDS011;5754;43.726;7.416;2023-03-11T01:54:20;1.70;;;0.37;;
11396;SDS011;5754;43.726;7.416;2023-03-11T01:56:58;0.73;;;0.30;;
11396;SDS011;5754;43.726;7.416;2023-03-11T01:59:38;0.73;;;0.40;;
11396;SDS011;5754;43.726;7.416;2023-03-11T02:02:16;0.67;;;0.20;;
11396;SDS011;5754;43.726;7.416;2023-03-11T02:04:51;0.30;;;0.30;;
11396;SDS011;5754;43.726;7.416;2023-03-11T02:07:29;0.40;;;0.40;;
11396;SDS011;5754;43.726;7.416;2023-03-11T02:10:06;1.00;;;0.70;;
11396;SDS011;5754;43.726;7.416;2023-03-11T02:12:41;2.23;;;0.83;;
11396;SDS011;5754;43.726;7.416;2023-03-11T02:15:17;1.83;;;0.63;;
11396;SDS011;5754;43.726;7.416;2023-03-11T02:17:52;3.67;;;1.07;;
11396;SDS011;5754;43.726;7.416;2023-03-11T02:20:31;6.67;;;1.47;;
11396;SDS011;5754;43.726;7.416;2023-03-11T02:23:15;7.43;;;2.00;;
11396;SDS011;5754;43.726;7.416;2023-03-11T02:25:56;11.60;;;1.80;;
11396;SDS011;5754;43.726;7.416;2023-03-11T02:28:34;5.93;;;1.60;;
11396;SDS011;5754;43.726;7.416;2023-03-11T02:31:09;4.83;;;1.57;;
11396;SDS011;5754;43.726;7.416;2023-03-11T02:33:44;3.60;;;1.30;;
11396;SDS011;5754;43.726;7.416;2023-03-11T02:36:30;3.33;;;0.90;;
11396;SDS011;5754;43.726;7.416;2023-03-11T02:39:06;2.23;;;0.83;;
11396;SDS011;5754;43.726;7.416;2023-03-11T02:41:45;2.97;;;0.90;;
11396;SDS011;5754;43.726;7.416;2023-03-11T02:44:20;5.87;;;1.10;;
11396;SDS011;5754;43.726;7.416;2023-03-11T02:46:54;1.23;;;0.53;;
11396;SDS011;5754;43.726;7.416;2023-03-11T02:49:29;2.77;;;0.90;;
11396;SDS011;5754;43.726;7.416;2023-03-11T02:52:04;2.37;;;0.70;;
11396;SDS011;5754;43.726;7.416;2023-03-11T02:54:40;1.27;;;0.60;;
11396;SDS011;5754;43.726;7.416;2023-03-11T02:57:14;0.40;;;0.40;;
11396;SDS011;5754;43.726;7.416;2023-03-11T02:59:49;1.33;;;0.50;;
11396;SDS011;5754;43.726;7.416;2023-03-11T03:02:24;1.07;;;0.50;;
11396;SDS011;5754;43.726;7.416;2023-03-11T03:04:59;4.00;;;0.40;;
11396;SDS011;5754;43.726;7.416;2023-03-11T03:07:34;0.87;;;0.40;;
11396;SDS011;5754;43.726;7.416;2023-03-11T03:10:09;1.30;;;0.90;;
11396;SDS011;5754;43.726;7.416;2023-03-11T03:12:44;0.50;;;0.30;;
11396;SDS011;5754;43.726;7.416;2023-03-11T03:15:21;0.40;;;0.40;;
11396;SDS011;5754;43.726;7.416;2023-03-11T03:17:56;0.30;;;0.30;;
11396;SDS011;5754;43.726;7.416;2023-03-11T03:20:32;0.90;;;0.47;;
11396;SDS011;5754;43.726;7.416;2023-03-11T03:23:07;0.50;;;0.30;;
11396;SDS011;5754;43.726;7.416;2023-03-11T03:25:43;1.60;;;0.47;;
11396;SDS011;5754;43.726;7.416;2023-03-11T03:28:18;0.40;;;0.40;;
11396;SDS011;5754;43.726;7.416;2023-03-11T03:30:53;0.30;;;0.20;;
11396;SDS011;5754;43.726;7.416;2023-03-11T03:33:28;0.50;;;0.50;;
11396;SDS011;5754;43.726;7.416;2023-03-11T03:36:08;8.07;;;2.30;;
11396;SDS011;5754;43.726;7.416;2023-03-11T03:38:53;6.67;;;2.40;;
11396;SDS011;5754;43.726;7.416;2023-03-11T03:41:28;8.60;;;3.00;;
11396;SDS011;5754;43.726;7.416;2023-03-11T03:44:04;14.43;;;3.10;;
11396;SDS011;5754;43.726;7.416;2023-03-11T03:46:39;7.73;;;2.70;;
11396;SDS011;5754;43.726;7.416;2023-03-11T03:49:14;12.37;;;3.57;;
11396;SDS011;5754;43.726;7.416;2023-03-11T03:51:50;15.80;;;3.13;;
11396;SDS011;5754;43.726;7.416;2023-03-11T03:54:33;10.43;;;3.10;;
11396;SDS011;5754;43.726;7.416;2023-03-11T03:57:08;13.40;;;3.17;;
11396;SDS011;5754;43.726;7.416;2023-03-11T03:59:48;9.20;;;2.63;;
11396;SDS011;5754;43.726;7.416;2023-03-11T04:02:23;15.53;;;2.93;;
11396;SDS011;5754;43.726;7.416;2023-03-11T04:04:58;12.27;;;3.20;;
11396;SDS011;5754;43.726;7.416;2023-03-11T04:07:33;11.67;;;3.77;;
11396;SDS011;5754;43.726;7.416;2023-03-11T04:10:09;10.57;;;2.80;;
11396;SDS011;5754;43.726;7.416;2023-03-11T04:12:47;12.50;;;3.07;;
11396;SDS011;5754;43.726;7.416;2023-03-11T04:15:22;11.67;;;2.93;;
11396;SDS011;5754;43.726;7.416;2023-03-11T04:17:57;12.40;;;2.77;;
11396;SDS011;5754;43.726;7.416;2023-03-11T04:20:32;8.73;;;2.10;;
11396;SDS011;5754;43.726;7.416;2023-03-11T04:23:06;5.87;;;1.87;;
11396;SDS011;5754;43.726;7.416;2023-03-11T04:25:41;10.47;;;2.17;;
11396;SDS011;5754;43.726;7.416;2023-03-11T04:28:15;6.03;;;2.00;;
11396;SDS011;5754;43.726;7.416;2023-03-11T04:30:50;8.17;;;2.10;;
11396;SDS011;5754;43.726;7.416;2023-03-11T04:33:24;7.13;;;1.77;;
11396;SDS011;5754;43.726;7.416;2023-03-11T04:36:03;5.67;;;1.70;;
11396;SDS011;5754;43.726;7.416;2023-03-11T04:38:38;6.23;;;2.00;;
11396;SDS011;5754;43.726;7.416;2023-03-11T04:41:14;9.20;;;2.00;;
11396;SDS011;5754;43.726;7.416;2023-03-11T04:43:49;6.83;;;1.93;;
11396;SDS011;5754;43.726;7.416;2023-03-11T04:46:23;7.67;;;2.47;;
11396;SDS011;5754;43.726;7.416;2023-03-11T04:48:58;7.03;;;2.50;;
11396;SDS011;5754;43.726;7.416;2023-03-11T04:51:32;7.03;;;1.93;;
11396;SDS011;5754;43.726;7.416;2023-03-11T04:54:07;6.97;;;2.53;;
11396;SDS011;5754;43.726;7.416;2023-03-11T04:56:41;6.43;;;2.07;;
11396;SDS011;5754;43.726;7.416;2023-03-11T04:59:16;7.83;;;1.87;;
11396;SDS011;5754;43.726;7.416;2023-03-11T05:01:51;4.80;;;2.03;;
11396;SDS011;5754;43.726;7.416;2023-03-11T05:04:26;5.27;;;1.90;;
11396;SDS011;5754;43.726;7.416;2023-03-11T05:07:01;7.10;;;2.27;;
11396;SDS011;5754;43.726;7.416;2023-03-11T05:09:35;8.00;;;1.80;;
11396;SDS011;5754;43.726;7.416;2023-03-11T05:12:10;4.93;;;1.70;;
11396;SDS011;5754;43.726;7.416;2023-03-11T05:14:46;6.50;;;2.07;;
11396;SDS011;5754;43.726;7.416;2023-03-11T05:17:21;7.93;;;2.03;;
11396;SDS011;5754;43.726;7.416;2023-03-11T05:19:57;7.67;;;2.07;;
11396;SDS011;5754;43.726;7.416;2023-03-11T05:22:36;4.37;;;1.80;;
11396;SDS011;5754;43.726;7.416;2023-03-11T05:25:11;5.07;;;1.80;;
11396;SDS011;5754;43.726;7.416;2023-03-11T05:27:46;4.40;;;1.90;;
11396;SDS011;5754;43.726;7.416;2023-03-11T05:30:23;7.00;;;2.30;;
11396;SDS011;5754;43.726;7.416;2023-03-11T05:32:57;4.73;;;1.87;;
11396;SDS011;5754;43.726;7.416;2023-03-11T05:35:32;7.87;;;1.87;;
11396;SDS011;5754;43.726;7.416;2023-03-11T05:38:07;7.67;;;1.87;;
11396;SDS011;5754;43.726;7.416;2023-03-11T05:40:44;4.60;;;1.70;;
11396;SDS011;5754;43.726;7.416;2023-03-11T05:43:18;4.47;;;2.00;;
11396;SDS011;5754;43.726;7.416;2023-03-11T05:45:57;7.60;;;2.00;;
11396;SDS011;5754;43.726;7.416;2023-03-11T05:48:32;6.53;;;2.10;;
11396;SDS011;5754;43.726;7.416;2023-03-11T05:51:07;6.53;;;1.80;;
11396;SDS011;5754;43.726;7.416;2023-03-11T05:53:42;5.77;;;2.00;;
11396;SDS011;5754;43.726;7.416;2023-03-11T05:56:28;6.30;;;1.80;;
11396;SDS011;5754;43.726;7.416;2023-03-11T05:59:03;6.53;;;2.30;;
11396;SDS011;5754;43.726;7.416;2023-03-11T06:01:40;5.63;;;1.87;;
11396;SDS011;5754;43.726;7.416;2023-03-11T06:04:16;8.17;;;1.70;;
11396;SDS011;5754;43.726;7.416;2023-03-11T06:06:51;7.27;;;2.10;;
11396;SDS011;5754;43.726;7.416;2023-03-11T06:09:26;6.07;;;2.27;;
11396;SDS011;5754;43.726;7.416;2023-03-11T06:12:02;5.70;;;2.00;;
11396;SDS011;5754;43.726;7.416;2023-03-11T06:14:45;4.53;;;1.80;;
11396;SDS011;5754;43.726;7.416;2023-03-11T06:17:20;9.97;;;2.20;;
11396;SDS011;5754;43.726;7.416;2023-03-11T06:19:54;6.70;;;2.30;;
11396;SDS011;5754;43.726;7.416;2023-03-11T06:22:29;6.17;;;1.97;;
11396;SDS011;5754;43.726;7.416;2023-03-11T06:25:03;5.17;;;2.20;;
11396;SDS011;5754;43.726;7.416;2023-03-11T06:27:37;5.83;;;2.17;;
11396;SDS011;5754;43.726;7.416;2023-03-11T06:30:12;8.20;;;2.80;;
11396;SDS011;5754;43.726;7.416;2023-03-11T06:32:53;10.03;;;2.20;;
11396;SDS011;5754;43.726;7.416;2023-03-11T06:35:27;9.47;;;2.63;;
11396;SDS011;5754;43.726;7.416;2023-03-11T06:38:03;8.40;;;2.80;;
11396;SDS011;5754;43.726;7.416;2023-03-11T06:40:38;8.30;;;3.33;;
11396;SDS011;5754;43.726;7.416;2023-03-11T06:43:12;9.73;;;2.73;;
11396;SDS011;5754;43.726;7.416;2023-03-11T06:45:48;6.07;;;2.53;;
11396;SDS011;5754;43.726;7.416;2023-03-11T06:48:23;11.63;;;3.37;;
11396;SDS011;5754;43.726;7.416;2023-03-11T06:50:58;7.07;;;2.60;;
11396;SDS011;5754;43.726;7.416;2023-03-11T06:53:35;9.10;;;3.00;;
11396;SDS011;5754;43.726;7.416;2023-03-11T06:56:10;9.53;;;2.83;;
11396;SDS011;5754;43.726;7.416;2023-03-11T06:58:59;11.63;;;3.30;;
11396;SDS011;5754;43.726;7.416;2023-03-11T07:01:36;10.10;;;3.17;;
11396;SDS011;5754;43.726;7.416;2023-03-11T07:04:12;10.70;;;3.43;;
11396;SDS011;5754;43.726;7.416;2023-03-11T07:06:47;14.13;;;3.33;;
11396;SDS011;5754;43.726;7.416;2023-03-11T07:09:25;7.03;;;3.37;;
11396;SDS011;5754;43.726;7.416;2023-03-11T07:12:02;11.87;;;3.93;;
11396;SDS011;5754;43.726;7.416;2023-03-11T07:14:41;8.90;;;3.70;;
11396;SDS011;5754;43.726;7.416;2023-03-11T07:17:15;13.57;;;3.77;;
11396;SDS011;5754;43.726;7.416;2023-03-11T07:19:54;9.70;;;3.37;;
11396;SDS011;5754;43.726;7.416;2023-03-11T07:22:29;7.50;;;3.53;;
11396;SDS011;5754;43.726;7.416;2023-03-11T07:25:04;10.37;;;3.67;;
11396;SDS011;5754;43.726;7.416;2023-03-11T07:27:38;9.90;;;3.47;;
11396;SDS011;5754;43.726;7.416;2023-03-11T07:30:13;11.47;;;3.57;;
11396;SDS011;5754;43.726;7.416;2023-03-11T07:32:48;10.27;;;3.30;;
11396;SDS011;5754;43.726;7.416;2023-03-11T07:35:22;9.80;;;3.60;;
11396;SDS011;5754;43.726;7.416;2023-03-11T07:37:56;8.25;;;3.42;;
11396;SDS011;5754;43.726;7.416;2023-03-11T07:40:31;7.00;;;2.85;;
11396;SDS011;5754;43.726;7.416;2023-03-11T07:43:05;7.07;;;3.08;;
11396;SDS011;5754;43.726;7.416;2023-03-11T07:45:40;7.68;;;3.33;;
11396;SDS011;5754;43.726;7.416;2023-03-11T07:48:14;9.88;;;2.85;;
11396;SDS011;5754;43.726;7.416;2023-03-11T07:50:48;6.00;;;3.33;;
11396;SDS011;5754;43.726;7.416;2023-03-11T07:53:23;6.28;;;3.37;;
11396;SDS011;5754;43.726;7.416;2023-03-11T07:55:58;8.68;;;3.12;;
11396;SDS011;5754;43.726;7.416;2023-03-11T07:58:32;6.85;;;2.87;;
11396;SDS011;5754;43.726;7.416;2023-03-11T08:01:11;10.37;;;3.30;;
11396;SDS011;5754;43.726;7.416;2023-03-11T08:03:49;8.27;;;3.03;;
11396;SDS011;5754;43.726;7.416;2023-03-11T08:06:26;9.63;;;3.70;;
11396;SDS011;5754;43.726;7.416;2023-03-11T08:09:02;27.57;;;4.00;;
11396;SDS011;5754;43.726;7.416;2023-03-11T08:11:37;9.73;;;3.63;;
11396;SDS011;5754;43.726;7.416;2023-03-11T08:14:12;12.97;;;4.00;;
11396;SDS011;5754;43.726;7.416;2023-03-11T08:16:46;10.27;;;3.87;;
11396;SDS011;5754;43.726;7.416;2023-03-11T08:19:21;9.47;;;3.90;;
11396;SDS011;5754;43.726;7.416;2023-03-11T08:21:55;9.07;;;4.00;;
11396;SDS011;5754;43.726;7.416;2023-03-11T08:24:30;11.33;;;3.87;;
11396;SDS011;5754;43.726;7.416;2023-03-11T08:27:05;12.33;;;4.20;;
11396;SDS011;5754;43.726;7.416;2023-03-11T08:29:39;9.77;;;3.93;;
11396;SDS011;5754;43.726;7.416;2023-03-11T08:32:13;17.10;;;4.90;;
11396;SDS011;5754;43.726;7.416;2023-03-11T08:34:48;14.13;;;4.83;;
11396;SDS011;5754;43.726;7.416;2023-03-11T08:37:22;13.83;;;4.77;;
11396;SDS011;5754;43.726;7.416;2023-03-11T08:39:57;17.73;;;4.73;;
11396;SDS011;5754;43.726;7.416;2023-03-11T08:42:33;11.37;;;4.20;;
11396;SDS011;5754;43.726;7.416;2023-03-11T08:45:10;13.67;;;4.40;;
11396;SDS011;5754;43.726;7.416;2023-03-11T08:47:45;13.93;;;4.30;;
11396;SDS011;5754;43.726;7.416;2023-03-11T08:50:20;13.13;;;4.80;;
11396;SDS011;5754;43.726;7.416;2023-03-11T08:52:54;8.53;;;3.90;;
11396;SDS011;5754;43.726;7.416;2023-03-11T08:55:32;15.53;;;4.80;;
11396;SDS011;5754;43.726;7.416;2023-03-11T08:58:07;15.13;;;4.87;;
11396;SDS011;5754;43.726;7.416;2023-03-11T09:00:41;13.23;;;4.97;;
11396;SDS011;5754;43.726;7.416;2023-03-11T09:03:16;13.00;;;4.90;;
11396;SDS011;5754;43.726;7.416;2023-03-11T09:05:57;13.10;;;5.33;;
11396;SDS011;5754;43.726;7.416;2023-03-11T09:08:32;13.30;;;5.30;;
11396;SDS011;5754;43.726;7.416;2023-03-11T09:11:07;14.37;;;5.30;;
11396;SDS011;5754;43.726;7.416;2023-03-11T09:13:42;14.63;;;5.10;;
11396;SDS011;5754;43.726;7.416;2023-03-11T09:16:19;12.40;;;4.73;;
11396;SDS011;5754;43.726;7.416;2023-03-11T09:18:53;17.57;;;5.53;;
11396;SDS011;5754;43.726;7.416;2023-03-11T09:21:28;22.17;;;6.20;;
11396;SDS011;5754;43.726;7.416;2023-03-11T09:24:03;16.33;;;5.40;;
11396;SDS011;5754;43.726;7.416;2023-03-11T09:26:37;20.83;;;6.30;;
11396;SDS011;5754;43.726;7.416;2023-03-11T09:29:12;18.93;;;6.37;;
11396;SDS011;5754;43.726;7.416;2023-03-11T09:31:46;20.17;;;6.80;;
11396;SDS011;5754;43.726;7.416;2023-03-11T09:34:20;21.73;;;6.83;;
11396;SDS011;5754;43.726;7.416;2023-03-11T09:36:55;20.97;;;7.00;;
11396;SDS011;5754;43.726;7.416;2023-03-11T09:39:29;19.60;;;6.97;;
11396;SDS011;5754;43.726;7.416;2023-03-11T09:51:45;23.00;;;7.60;;
11396;SDS011;5754;43.726;7.416;2023-03-11T09:54:22;26.40;;;7.43;;
11396;SDS011;5754;43.726;7.416;2023-03-11T09:56:56;24.63;;;7.47;;
11396;SDS011;5754;43.726;7.416;2023-03-11T09:59:33;32.17;;;8.07;;
11396;SDS011;5754;43.726;7.416;2023-03-11T10:02:14;25.17;;;7.30;;
11396;SDS011;5754;43.726;7.416;2023-03-11T10:04:55;26.40;;;7.40;;
11396;SDS011;5754;43.726;7.416;2023-03-11T10:07:32;27.83;;;8.63;;
11396;SDS011;5754;43.726;7.416;2023-03-11T10:10:11;32.27;;;8.77;;
11396;SDS011;5754;43.726;7.416;2023-03-11T10:12:58;28.90;;;7.83;;
11396;SDS011;5754;43.726;7.416;2023-03-11T10:15:47;28.37;;;7.37;;
11396;SDS011;5754;43.726;7.416;2023-03-11T10:23:08;36.90;;;9.77;;
11396;SDS011;5754;43.726;7.416;2023-03-11T10:26:46;36.90;;;8.50;;
11396;SDS011;5754;43.726;7.416;2023-03-11T10:29:59;34.77;;;8.63;;
11396;SDS011;5754;43.726;7.416;2023-03-11T10:32:58;32.07;;;9.37;;
11396;SDS011;5754;43.726;7.416;2023-03-11T10:35:38;40.40;;;9.20;;
11396;SDS011;5754;43.726;7.416;2023-03-11T10:38:24;37.10;;;9.37;;
11396;SDS011;5754;43.726;7.416;2023-03-11T10:41:00;36.27;;;8.97;;
11396;SDS011;5754;43.726;7.416;2023-03-11T10:43:37;44.57;;;9.37;;
11396;SDS011;5754;43.726;7.416;2023-03-11T10:46:21;38.70;;;9.63;;
11396;SDS011;5754;43.726;7.416;2023-03-11T10:48:56;35.20;;;9.70;;
11396;SDS011;5754;43.726;7.416;2023-03-11T10:51:34;39.37;;;9.80;;
11396;SDS011;5754;43.726;7.416;2023-03-11T10:54:10;32.47;;;8.13;;
11396;SDS011;5754;43.726;7.416;2023-03-11T10:56:55;38.37;;;9.67;;
11396;SDS011;5754;43.726;7.416;2023-03-11T10:59:33;39.57;;;8.87;;
11396;SDS011;5754;43.726;7.416;2023-03-11T11:02:26;37.63;;;9.77;;
11396;SDS011;5754;43.726;7.416;2023-03-11T11:05:03;39.13;;;10.17;;
11396;SDS011;5754;43.726;7.416;2023-03-11T11:07:38;44.17;;;9.87;;
11396;SDS011;5754;43.726;7.416;2023-03-11T11:10:20;43.03;;;10.43;;
11396;SDS011;5754;43.726;7.416;2023-03-11T11:12:56;36.47;;;9.13;;
11396;SDS011;5754;43.726;7.416;2023-03-11T11:15:35;42.63;;;9.47;;
11396;SDS011;5754;43.726;7.416;2023-03-11T11:18:30;38.17;;;9.43;;
11396;SDS011;5754;43.726;7.416;2023-03-11T11:21:07;34.57;;;8.93;;
11396;SDS011;5754;43.726;7.416;2023-03-11T11:23:58;33.00;;;8.83;;
11396;SDS011;5754;43.726;7.416;2023-03-11T11:26:36;40.63;;;8.93;;
11396;SDS011;5754;43.726;7.416;2023-03-11T11:29:13;42.43;;;11.00;;
11396;SDS011;5754;43.726;7.416;2023-03-11T11:31:49;44.33;;;9.10;;
11396;SDS011;5754;43.726;7.416;2023-03-11T11:34:30;39.60;;;9.63;;
11396;SDS011;5754;43.726;7.416;2023-03-11T11:37:05;37.93;;;10.10;;
11396;SDS011;5754;43.726;7.416;2023-03-11T11:39:55;39.90;;;9.40;;
11396;SDS011;5754;43.726;7.416;2023-03-11T11:42:31;49.23;;;11.67;;
11396;SDS011;5754;43.726;7.416;2023-03-11T11:45:10;50.20;;;9.80;;
11396;SDS011;5754;43.726;7.416;2023-03-11T11:47:51;42.00;;;9.97;;
11396;SDS011;5754;43.726;7.416;2023-03-11T11:50:28;43.03;;;10.90;;
11396;SDS011;5754;43.726;7.416;2023-03-11T11:53:24;44.47;;;10.00;;
11396;SDS011;5754;43.726;7.416;2023-03-11T11:56:00;46.00;;;10.33;;
11396;SDS011;5754;43.726;7.416;2023-03-11T11:58:36;42.07;;;10.13;;
11396;SDS011;5754;43.726;7.416;2023-03-11T12:01:35;35.63;;;10.00;;
11396;SDS011;5754;43.726;7.416;2023-03-11T12:04:24;43.17;;;10.10;;
11396;SDS011;5754;43.726;7.416;2023-03-11T12:08:05;41.47;;;9.40;;
11396;SDS011;5754;43.726;7.416;2023-03-11T12:10:48;42.33;;;9.43;;
11396;SDS011;5754;43.726;7.416;2023-03-11T12:13:43;37.97;;;9.57;;
11396;SDS011;5754;43.726;7.416;2023-03-11T12:16:22;38.17;;;9.03;;
11396;SDS011;5754;43.726;7.416;2023-03-11T12:19:01;35.80;;;10.97;;
11396;SDS011;5754;43.726;7.416;2023-03-11T12:36:39;31.53;;;7.73;;
11396;SDS011;5754;43.726;7.416;2023-03-11T12:39:27;32.40;;;9.10;;
11396;SDS011;5754;43.726;7.416;2023-03-11T12:42:21;38.07;;;8.73;;
11396;SDS011;5754;43.726;7.416;2023-03-11T12:45:02;34.47;;;8.03;;
11396;SDS011;5754;43.726;7.416;2023-03-11T13:07:06;34.30;;;8.27;;
11396;SDS011;5754;43.726;7.416;2023-03-11T13:09:58;28.00;;;7.10;;
11396;SDS011;5754;43.726;7.416;2023-03-11T13:12:40;37.77;;;8.63;;
11396;SDS011;5754;43.726;7.416;2023-03-11T13:18:16;26.73;;;7.17;;
11396;SDS011;5754;43.726;7.416;2023-03-11T13:20:54;29.90;;;7.70;;
11396;SDS011;5754;43.726;7.416;2023-03-11T13:23:33;31.30;;;7.67;;
11396;SDS011;5754;43.726;7.416;2023-03-11T13:26:16;29.40;;;8.43;;
11396;SDS011;5754;43.726;7.416;2023-03-11T13:29:08;30.97;;;7.73;;
11396;SDS011;5754;43.726;7.416;2023-03-11T13:32:11;31.50;;;7.73;;
11396;SDS011;5754;43.726;7.416;2023-03-11T13:43:28;30.00;;;6.90;;
11396;SDS011;5754;43.726;7.416;2023-03-11T13:46:04;29.80;;;6.70;;
11396;SDS011;5754;43.726;7.416;2023-03-11T13:48:43;27.20;;;6.20;;
11396;SDS011;5754;43.726;7.416;2023-03-11T13:51:24;26.60;;;7.23;;
11396;SDS011;5754;43.726;7.416;2023-03-11T13:58:29;30.73;;;7.27;;
11396;SDS011;5754;43.726;7.416;2023-03-11T14:01:03;30.73;;;6.37;;
11396;SDS011;5754;43.726;7.416;2023-03-11T14:03:40;27.10;;;6.40;;
11396;SDS011;5754;43.726;7.416;2023-03-11T14:06:15;28.87;;;7.17;;
11396;SDS011;5754;43.726;7.416;2023-03-11T14:08:53;26.73;;;8.53;;
11396;SDS011;5754;43.726;7.416;2023-03-11T14:11:28;26.63;;;6.27;;
11396;SDS011;5754;43.726;7.416;2023-03-11T14:14:03;28.13;;;6.93;;
11396;SDS011;5754;43.726;7.416;2023-03-11T14:16:53;27.43;;;6.90;;
11396;SDS011;5754;43.726;7.416;2023-03-11T14:19:28;24.63;;;6.17;;
11396;SDS011;5754;43.726;7.416;2023-03-11T14:22:06;22.80;;;6.40;;
11396;SDS011;5754;43.726;7.416;2023-03-11T14:24:45;29.03;;;6.63;;
11396;SDS011;5754;43.726;7.416;2023-03-11T14:27:21;29.67;;;6.57;;
11396;SDS011;5754;43.726;7.416;2023-03-11T14:29:55;23.90;;;5.90;;
11396;SDS011;5754;43.726;7.416;2023-03-11T14:32:31;22.57;;;6.03;;
11396;SDS011;5754;43.726;7.416;2023-03-11T14:35:17;23.30;;;6.00;;
11396;SDS011;5754;43.726;7.416;2023-03-11T14:37:52;22.53;;;5.80;;
11396;SDS011;5754;43.726;7.416;2023-03-11T14:40:30;26.60;;;6.50;;
11396;SDS011;5754;43.726;7.416;2023-03-11T14:43:05;27.27;;;6.80;;
11396;SDS011;5754;43.726;7.416;2023-03-11T14:45:40;24.10;;;6.57;;
11396;SDS011;5754;43.726;7.416;2023-03-11T14:48:25;26.00;;;6.93;;
11396;SDS011;5754;43.726;7.416;2023-03-11T14:51:02;21.73;;;6.33;;
11396;SDS011;5754;43.726;7.416;2023-03-11T14:53:41;28.33;;;6.47;;
11396;SDS011;5754;43.726;7.416;2023-03-11T14:56:18;22.97;;;6.53;;
11396;SDS011;5754;43.726;7.416;2023-03-11T14:58:58;19.47;;;6.17;;
11396;SDS011;5754;43.726;7.416;2023-03-11T15:01:41;18.30;;;5.30;;
11396;SDS011;5754;43.726;7.416;2023-03-11T15:04:21;19.37;;;6.27;;
11396;SDS011;5754;43.726;7.416;2023-03-11T15:07:00;20.57;;;6.13;;
11396;SDS011;5754;43.726;7.416;2023-03-11T15:09:39;26.67;;;5.80;;
11396;SDS011;5754;43.726;7.416;2023-03-11T15:15:24;25.37;;;5.53;;
11396;SDS011;5754;43.726;7.416;2023-03-11T15:17:59;20.07;;;5.43;;
11396;SDS011;5754;43.726;7.416;2023-03-11T15:20:34;17.03;;;5.27;;
11396;SDS011;5754;43.726;7.416;2023-03-11T15:23:15;22.90;;;5.80;;
11396;SDS011;5754;43.726;7.416;2023-03-11T15:25:52;21.70;;;5.63;;
11396;SDS011;5754;43.726;7.416;2023-03-11T15:28:27;23.07;;;6.07;;
11396;SDS011;5754;43.726;7.416;2023-03-11T15:35:29;21.87;;;6.30;;
11396;SDS011;5754;43.726;7.416;2023-03-11T15:38:12;25.57;;;5.87;;
11396;SDS011;5754;43.726;7.416;2023-03-11T15:40:54;30.47;;;6.23;;
11396;SDS011;5754;43.726;7.416;2023-03-11T15:43:34;21.63;;;5.80;;
11396;SDS011;5754;43.726;7.416;2023-03-11T15:46:16;19.30;;;5.93;;
11396;SDS011;5754;43.726;7.416;2023-03-11T15:48:50;19.40;;;5.33;;
11396;SDS011;5754;43.726;7.416;2023-03-11T15:51:25;22.07;;;5.27;;
11396;SDS011;5754;43.726;7.416;2023-03-11T15:53:59;18.90;;;5.27;;
11396;SDS011;5754;43.726;7.416;2023-03-11T15:56:34;23.50;;;5.87;;
11396;SDS011;5754;43.726;7.416;2023-03-11T15:59:14;22.20;;;6.40;;
11396;SDS011;5754;43.726;7.416;2023-03-11T16:01:50;27.93;;;6.00;;
11396;SDS011;5754;43.726;7.416;2023-03-11T16:04:24;29.30;;;6.87;;
11396;SDS011;5754;43.726;7.416;2023-03-11T16:07:00;27.27;;;6.17;;
11396;SDS011;5754;43.726;7.416;2023-03-11T16:09:41;30.20;;;6.93;;
11396;SDS011;5754;43.726;7.416;2023-03-11T16:12:17;28.13;;;7.27;;
11396;SDS011;5754;43.726;7.416;2023-03-11T16:14:52;28.20;;;8.07;;
11396;SDS011;5754;43.726;7.416;2023-03-11T16:17:26;29.07;;;8.87;;
11396;SDS011;5754;43.726;7.416;2023-03-11T16:20:13;29.20;;;7.10;;
11396;SDS011;5754;43.726;7.416;2023-03-11T16:22:47;30.73;;;6.70;;
11396;SDS011;5754;43.726;7.416;2023-03-11T16:25:24;29.97;;;7.40;;
11396;SDS011;5754;43.726;7.416;2023-03-11T16:28:00;28.00;;;7.33;;
11396;SDS011;5754;43.726;7.416;2023-03-11T16:30:34;32.13;;;8.13;;
11396;SDS011;5754;43.726;7.416;2023-03-11T16:33:09;24.63;;;7.47;;
11396;SDS011;5754;43.726;7.416;2023-03-11T16:35:45;23.27;;;6.57;;
11396;SDS011;5754;43.726;7.416;2023-03-11T16:38:20;23.90;;;6.87;;
11396;SDS011;5754;43.726;7.416;2023-03-11T16:40:56;32.70;;;7.33;;
11396;SDS011;5754;43.726;7.416;2023-03-11T16:43:31;30.07;;;7.67;;
11396;SDS011;5754;43.726;7.416;2023-03-11T16:46:05;27.23;;;7.27;;
11396;SDS011;5754;43.726;7.416;2023-03-11T16:48:40;27.20;;;6.57;;
11396;SDS011;5754;43.726;7.416;2023-03-11T16:51:15;26.37;;;6.83;;
11396;SDS011;5754;43.726;7.416;2023-03-11T16:53:49;25.30;;;6.20;;
11396;SDS011;5754;43.726;7.416;2023-03-11T16:56:23;25.33;;;6.23;;
11396;SDS011;5754;43.726;7.416;2023-03-11T16:58:58;22.40;;;7.20;;
11396;SDS011;5754;43.726;7.416;2023-03-11T17:01:33;25.73;;;6.63;;
11396;SDS011;5754;43.726;7.416;2023-03-11T17:04:12;24.60;;;6.77;;
11396;SDS011;5754;43.726;7.416;2023-03-11T17:06:46;25.27;;;5.70;;
11396;SDS011;5754;43.726;7.416;2023-03-11T17:09:21;26.07;;;6.63;;
11396;SDS011;5754;43.726;7.416;2023-03-11T17:11:56;22.13;;;5.97;;
11396;SDS011;5754;43.726;7.416;2023-03-11T17:14:31;21.33;;;5.97;;